createdAt,value
2018-08-03T00:00:39.136Z,100710.00
2018-08-03T00:03:07.034Z,100714.00
2018-08-03T00:05:34.957Z,100720.00
2018-08-03T00:08:02.754Z,100710.00
2018-08-03T00:10:30.675Z,100713.00
2018-08-03T00:12:58.579Z,100702.00
2018-08-03T00:15:26.523Z,100693.00
2018-08-03T00:17:54.415Z,100697.00
2018-08-03T00:20:22.268Z,100704.00
2018-08-03T00:22:50.208Z,100699.00
2018-08-03T00:25:18.143Z,100694.00
2018-08-03T00:27:46.072Z,100692.00
2018-08-03T00:30:13.945Z,100692.00
2018-08-03T00:32:41.830Z,100698.00
2018-08-03T00:35:09.715Z,100694.00
2018-08-03T00:37:37.613Z,100700.00
2018-08-03T00:40:05.574Z,100694.00
2018-08-03T00:42:33.534Z,100694.00
2018-08-03T00:45:01.470Z,100695.00
2018-08-03T00:47:29.302Z,100695.00
2018-08-03T00:49:57.197Z,100705.00
2018-08-03T00:52:25.090Z,100701.00
2018-08-03T00:54:52.940Z,100699.00
2018-08-03T00:57:20.789Z,100705.00
2018-08-03T00:59:48.682Z,100705.00
2018-08-03T01:02:16.466Z,100714.00
2018-08-03T01:04:44.262Z,100711.00
2018-08-03T01:07:12.192Z,100714.00
2018-08-03T01:09:40.024Z,100710.00
2018-08-03T01:12:07.851Z,100712.00
2018-08-03T01:14:35.663Z,100715.00
2018-08-03T01:17:03.496Z,100701.00
2018-08-03T01:19:31.247Z,100705.00
2018-08-03T01:21:59.141Z,100705.00
2018-08-03T01:24:27.056Z,100705.00
2018-08-03T01:26:54.859Z,100690.00
2018-08-03T01:29:22.663Z,100694.00
2018-08-03T01:31:50.490Z,100704.00
2018-08-03T01:34:18.278Z,100699.00
2018-08-03T01:36:46.103Z,100698.00
2018-08-03T01:39:13.961Z,100693.00
2018-08-03T01:41:41.883Z,100698.00
2018-08-03T01:44:09.759Z,100691.00
2018-08-03T01:46:37.555Z,100691.00
2018-08-03T01:49:05.361Z,100690.00
2018-08-03T01:51:33.172Z,100694.00
2018-08-03T01:54:01.007Z,100688.00
2018-08-03T01:56:28.822Z,100697.00
2018-08-03T01:58:56.685Z,100695.00
2018-08-03T02:01:24.508Z,100698.00
2018-08-03T02:03:52.638Z,100695.00
2018-08-03T02:06:20.503Z,100691.00
2018-08-03T02:08:48.353Z,100685.00
2018-08-03T02:11:16.259Z,100675.00
2018-08-03T02:13:44.068Z,100673.00
2018-08-03T02:16:11.901Z,100667.00
2018-08-03T02:18:39.760Z,100672.00
2018-08-03T02:21:07.568Z,100679.00
2018-08-03T02:23:35.443Z,100682.00
2018-08-03T02:26:03.278Z,100688.00
2018-08-03T02:28:31.042Z,100689.00
2018-08-03T02:30:58.959Z,100685.00
2018-08-03T02:33:26.955Z,100681.00
2018-08-03T02:35:54.931Z,100679.00
2018-08-03T02:38:22.772Z,100681.00
2018-08-03T02:40:50.668Z,100687.00
2018-08-03T02:43:18.637Z,100693.00
2018-08-03T02:45:46.576Z,100682.00
2018-08-03T02:48:14.556Z,100691.00
2018-08-03T02:50:42.403Z,100682.00
2018-08-03T02:53:10.269Z,100693.00
2018-08-03T02:55:38.222Z,100696.00
2018-08-03T02:58:06.126Z,100697.00
2018-08-03T03:00:34.101Z,100701.00
2018-08-03T03:03:01.994Z,100701.00
2018-08-03T03:05:29.873Z,100690.00
2018-08-03T03:07:57.717Z,100702.00
2018-08-03T03:10:25.611Z,100701.00
2018-08-03T03:12:53.523Z,100699.00
2018-08-03T03:15:21.441Z,100696.00
2018-08-03T03:17:49.310Z,100705.00
2018-08-03T03:20:17.214Z,100701.00
2018-08-03T03:22:45.067Z,100700.00
2018-08-03T03:25:13.036Z,100712.00
2018-08-03T03:27:40.935Z,100713.00
2018-08-03T03:30:09.072Z,100701.00
2018-08-03T03:32:37.010Z,100706.00
2018-08-03T03:35:04.891Z,100708.00
2018-08-03T03:37:32.815Z,100709.00
2018-08-03T03:40:00.735Z,100708.00
2018-08-03T03:42:28.623Z,100712.00
2018-08-03T03:44:56.495Z,100717.00
2018-08-03T03:47:24.365Z,100721.00
2018-08-03T03:49:52.298Z,100732.00
2018-08-03T03:52:20.129Z,100728.00
2018-08-03T03:54:48.083Z,100725.00
2018-08-03T03:57:15.908Z,100729.00
2018-08-03T03:59:43.761Z,100728.00
2018-08-03T04:02:11.610Z,100730.00
2018-08-03T04:04:39.446Z,100732.00
2018-08-03T04:07:07.261Z,100728.00
2018-08-03T04:09:35.094Z,100736.00
2018-08-03T04:12:03.028Z,100732.00
2018-08-03T04:14:30.918Z,100730.00
2018-08-03T04:16:58.738Z,100731.00
2018-08-03T04:19:26.533Z,100733.00
2018-08-03T04:21:54.348Z,100731.00
2018-08-03T04:24:22.169Z,100731.00
2018-08-03T04:26:50.032Z,100724.00
2018-08-03T04:29:17.895Z,100728.00
2018-08-03T04:31:45.730Z,100730.00
2018-08-03T04:34:13.555Z,100736.00
2018-08-03T04:36:41.403Z,100734.00
2018-08-03T04:39:09.239Z,100733.00
2018-08-03T04:41:37.130Z,100733.00
2018-08-03T04:44:04.910Z,100739.00
2018-08-03T04:46:32.841Z,100736.00
2018-08-03T04:49:00.640Z,100742.00
2018-08-03T04:51:28.565Z,100745.00
2018-08-03T04:53:56.503Z,100752.00
2018-08-03T04:56:24.396Z,100754.00
2018-08-03T04:58:52.882Z,100745.00
2018-08-03T05:01:20.723Z,100755.00
2018-08-03T05:03:48.511Z,100744.00
2018-08-03T05:06:16.325Z,100746.00
2018-08-03T05:08:44.262Z,100756.00
2018-08-03T05:11:12.110Z,100758.00
2018-08-03T05:13:39.920Z,100758.00
2018-08-03T05:16:07.731Z,100756.00
2018-08-03T05:18:35.548Z,100751.00
2018-08-03T05:21:03.332Z,100761.00
2018-08-03T05:23:31.134Z,100761.00
2018-08-03T05:25:58.982Z,100760.00
2018-08-03T05:28:26.884Z,100761.00
2018-08-03T05:30:54.780Z,100768.00
2018-08-03T05:33:22.514Z,100768.00
2018-08-03T05:35:50.394Z,100774.00
2018-08-03T05:38:18.221Z,100779.00
2018-08-03T05:40:46.002Z,100783.00
2018-08-03T05:43:13.846Z,100785.00
2018-08-03T05:45:41.638Z,100771.00
2018-08-03T05:48:14.875Z,100774.00
2018-08-03T05:50:42.747Z,100778.00
2018-08-03T05:53:10.675Z,100778.00
2018-08-03T05:55:38.562Z,100779.00
2018-08-03T05:58:06.516Z,100779.00
2018-08-03T06:00:34.363Z,100779.00
2018-08-03T06:03:02.167Z,100777.00
2018-08-03T06:05:30.114Z,100769.00
2018-08-03T06:07:58.026Z,100771.00
2018-08-03T06:10:25.895Z,100777.00
2018-08-03T06:12:53.814Z,100774.00
2018-08-03T06:15:21.603Z,100776.00
2018-08-03T06:17:49.482Z,100781.00
2018-08-03T06:20:17.327Z,100771.00
2018-08-03T06:22:45.156Z,100749.00
2018-08-03T06:25:13.016Z,100777.00
2018-08-03T06:27:40.918Z,100763.00
2018-08-03T06:30:10.361Z,100785.00
2018-08-03T06:32:38.494Z,100773.00
2018-08-03T06:35:06.674Z,100762.00
2018-08-03T06:37:34.792Z,100772.00
2018-08-03T06:40:02.792Z,100769.00
2018-08-03T06:42:30.609Z,100760.00
2018-08-03T06:44:58.493Z,100792.00
2018-08-03T06:47:26.265Z,100799.00
2018-08-03T06:49:54.142Z,100801.00
2018-08-03T06:52:22.093Z,100765.00
2018-08-03T06:54:50.191Z,100801.00
2018-08-03T06:57:18.017Z,100799.00
2018-08-03T06:59:45.979Z,100744.00
2018-08-03T07:02:13.851Z,100743.00
2018-08-03T07:04:41.748Z,100726.00
2018-08-03T07:07:09.685Z,100712.00
2018-08-03T07:09:37.677Z,100681.00
2018-08-03T07:12:05.576Z,100714.00
2018-08-03T07:14:33.511Z,100723.00
2018-08-03T07:17:01.375Z,100728.00
2018-08-03T07:19:29.324Z,100738.00
2018-08-03T07:21:57.281Z,100741.00
2018-08-03T07:24:25.235Z,100746.00
2018-08-03T07:26:53.162Z,100750.00
2018-08-03T07:29:21.043Z,100771.00
2018-08-03T07:31:49.075Z,100752.00
2018-08-03T07:34:17.035Z,100742.00
2018-08-03T07:36:45.018Z,100746.00
2018-08-03T07:39:12.979Z,100782.00
2018-08-03T07:41:48.696Z,100771.00
2018-08-03T07:44:43.980Z,100789.00
2018-08-03T07:47:11.876Z,100790.00
2018-08-03T07:49:39.779Z,100798.00
2018-08-03T07:52:08.131Z,100798.00
2018-08-03T07:57:42.396Z,100791.00
2018-08-03T08:00:35.542Z,100792.00
2018-08-03T08:03:03.411Z,100790.00
2018-08-03T08:05:31.333Z,100790.00
2018-08-03T08:07:59.273Z,100788.00
2018-08-03T08:13:34.452Z,100790.00
2018-08-03T08:16:02.457Z,100793.00
2018-08-03T08:18:30.366Z,100791.00
2018-08-03T08:20:58.335Z,100785.00
2018-08-03T08:23:26.314Z,100772.00
2018-08-03T08:26:04.081Z,100786.00
2018-08-03T08:28:31.967Z,100775.00
2018-08-03T08:30:59.871Z,100775.00
2018-08-03T08:33:27.822Z,100770.00
2018-08-03T08:36:07.914Z,100767.00
2018-08-03T08:38:35.820Z,100773.00
2018-08-03T08:41:03.737Z,100769.00
2018-08-03T08:43:31.757Z,100778.00
2018-08-03T08:45:59.686Z,100777.00
2018-08-03T08:48:32.632Z,100773.00
2018-08-03T08:51:00.522Z,100776.00
2018-08-03T08:53:28.396Z,100775.00
2018-08-03T08:55:56.239Z,100765.00
2018-08-03T08:58:24.137Z,100773.00
2018-08-03T09:00:52.141Z,100774.00
2018-08-03T09:03:20.150Z,100776.00
2018-08-03T09:05:48.046Z,100770.00
2018-08-03T09:08:15.915Z,100770.00
2018-08-03T09:10:43.837Z,100773.00
2018-08-03T09:13:11.737Z,100768.00
2018-08-03T09:15:39.569Z,100768.00
2018-08-03T09:18:07.344Z,100770.00
2018-08-03T09:20:35.278Z,100769.00
2018-08-03T09:23:09.465Z,100773.00
2018-08-03T09:25:37.290Z,100759.00
2018-08-03T09:28:05.586Z,100754.00
2018-08-03T09:30:41.431Z,100744.00
2018-08-03T09:33:09.269Z,100752.00
2018-08-03T09:35:37.218Z,100761.00
2018-08-03T09:38:05.202Z,100748.00
2018-08-03T09:40:43.639Z,100741.00
2018-08-03T09:43:12.002Z,100740.00
2018-08-03T09:45:39.761Z,100739.00
2018-08-03T09:48:07.520Z,100744.00
2018-08-03T09:50:36.387Z,100733.00
2018-08-03T09:53:04.235Z,100730.00
2018-08-03T09:55:32.090Z,100736.00
2018-08-03T09:57:59.957Z,100730.00
2018-08-03T10:00:33.463Z,100726.00
2018-08-03T10:03:01.238Z,100722.00
2018-08-03T10:05:29.007Z,100729.00
2018-08-03T10:07:56.903Z,100728.00
2018-08-03T10:10:24.665Z,100720.00
2018-08-03T10:12:52.589Z,100715.00
2018-08-03T10:15:21.531Z,100710.00
2018-08-03T10:17:49.499Z,100714.00
2018-08-03T10:20:17.511Z,100706.00
2018-08-03T10:22:45.335Z,100715.00
2018-08-03T10:25:13.118Z,100705.00
2018-08-03T10:27:41.009Z,100701.00
2018-08-03T10:30:08.879Z,100713.00
2018-08-03T10:32:36.723Z,100705.00
2018-08-03T10:35:05.376Z,100695.00
2018-08-03T10:37:33.182Z,100696.00
2018-08-03T10:40:00.977Z,100693.00
2018-08-03T10:42:28.819Z,100687.00
2018-08-03T10:44:56.637Z,100686.00
2018-08-03T10:47:24.513Z,100684.00
2018-08-03T10:49:52.520Z,100685.00
2018-08-03T10:52:20.683Z,100689.00
2018-08-03T10:54:48.760Z,100680.00
2018-08-03T10:57:16.537Z,100671.00
2018-08-03T10:59:44.406Z,100671.00
2018-08-03T11:02:12.254Z,100677.00
2018-08-03T11:04:40.277Z,100675.00
2018-08-03T11:07:08.235Z,100665.00
2018-08-03T11:09:36.059Z,100657.00
2018-08-03T11:12:04.222Z,100667.00
2018-08-03T11:14:32.051Z,100655.00
2018-08-03T11:17:00.139Z,100658.00
2018-08-03T11:19:27.872Z,100661.00
2018-08-03T11:21:55.645Z,100651.00
2018-08-03T11:24:23.429Z,100650.00
2018-08-03T11:26:51.190Z,100646.00
2018-08-03T11:29:19.003Z,100645.00
2018-08-03T11:31:46.887Z,100644.00
2018-08-03T11:34:14.754Z,100639.00
2018-08-03T11:36:42.616Z,100644.00
2018-08-03T11:39:11.246Z,100630.00
2018-08-03T11:41:39.063Z,100628.00
2018-08-03T11:44:07.195Z,100622.00
2018-08-03T11:46:35.085Z,100625.00
2018-08-03T11:49:02.957Z,100620.00
2018-08-03T11:51:30.870Z,100629.00
2018-08-03T11:53:58.702Z,100613.00
2018-08-03T11:56:26.583Z,100609.00
2018-08-03T11:58:54.360Z,100603.00
2018-08-03T12:01:22.150Z,100599.00
2018-08-03T12:03:49.936Z,100593.00
2018-08-03T12:06:17.717Z,100593.00
2018-08-03T12:08:45.580Z,100595.00
2018-08-03T12:11:13.409Z,100586.00
2018-08-03T12:13:41.302Z,100577.00
2018-08-03T12:16:09.095Z,100589.00
2018-08-03T12:18:36.880Z,100599.00
2018-08-03T12:21:04.679Z,100601.00
2018-08-03T12:23:32.514Z,100599.00
2018-08-03T12:26:00.257Z,100606.00
2018-08-03T12:28:36.622Z,100589.00
2018-08-03T12:31:04.430Z,100601.00
2018-08-03T12:33:32.199Z,100579.00
2018-08-03T12:36:00.092Z,100587.00
2018-08-03T12:38:27.891Z,100582.00
2018-08-03T12:40:55.690Z,100581.00
2018-08-03T12:43:23.556Z,100577.00
2018-08-03T12:45:51.390Z,100576.00
2018-08-03T12:48:19.137Z,100553.00
2018-08-03T12:50:46.980Z,100555.00
2018-08-03T12:53:14.791Z,100552.00
2018-08-03T12:55:42.578Z,100549.00
2018-08-03T12:58:10.452Z,100544.00
2018-08-03T13:00:38.295Z,100541.00
2018-08-03T13:03:06.124Z,100546.00
2018-08-03T13:05:33.939Z,100535.00
2018-08-03T13:08:02.079Z,100536.00
2018-08-03T13:10:29.730Z,100546.00
2018-08-03T13:12:57.611Z,100543.00
2018-08-03T13:15:25.392Z,100546.00
2018-08-03T13:17:53.178Z,100539.00
2018-08-03T13:20:20.976Z,100535.00
2018-08-03T13:22:48.781Z,100528.00
2018-08-03T13:25:16.611Z,100517.00
2018-08-03T13:27:44.467Z,100520.00
2018-08-03T13:30:12.215Z,100518.00
2018-08-03T13:32:39.947Z,100511.00
2018-08-03T13:35:07.696Z,100515.00
2018-08-03T13:37:35.398Z,100510.00
2018-08-03T13:40:03.132Z,100492.00
2018-08-03T13:42:31.045Z,100501.00
2018-08-03T13:44:58.894Z,100497.00
2018-08-03T13:47:26.706Z,100500.00
2018-08-03T13:49:54.516Z,100498.00
2018-08-03T13:52:22.320Z,100488.00
2018-08-03T13:54:50.181Z,100495.00
2018-08-03T13:57:18.010Z,100484.00
2018-08-03T13:59:45.943Z,100484.00
2018-08-03T14:02:23.411Z,100500.00
2018-08-03T14:04:51.423Z,100500.00
2018-08-03T14:07:19.240Z,100492.00
2018-08-03T14:09:47.117Z,100501.00
2018-08-03T14:12:15.090Z,100498.00
2018-08-03T14:14:42.866Z,100499.00
2018-08-03T14:17:11.171Z,100493.00
2018-08-03T14:19:39.700Z,100489.00
2018-08-03T14:25:08.772Z,100465.00
2018-08-03T14:27:36.601Z,100464.00
2018-08-03T14:30:06.192Z,100461.00
2018-08-03T14:32:34.042Z,100458.00
2018-08-03T14:35:01.824Z,100461.00
2018-08-03T14:37:29.605Z,100457.00
2018-08-03T14:39:57.367Z,100468.00
2018-08-03T14:42:25.232Z,100468.00
2018-08-03T14:44:53.037Z,100466.00
2018-08-03T14:47:20.908Z,100461.00
2018-08-03T14:49:48.761Z,100467.00
2018-08-03T14:52:16.582Z,100465.00
2018-08-03T14:54:44.444Z,100460.00
2018-08-03T14:57:12.225Z,100457.00
2018-08-03T14:59:40.083Z,100454.00
2018-08-03T15:02:07.919Z,100451.00
2018-08-03T15:04:35.708Z,100446.00
2018-08-03T15:07:03.630Z,100447.00
2018-08-03T15:09:31.542Z,100439.00
2018-08-03T15:11:59.326Z,100432.00
2018-08-03T15:14:27.155Z,100426.00
2018-08-03T15:16:55.027Z,100419.00
2018-08-03T15:19:22.894Z,100421.00
2018-08-03T15:21:50.732Z,100424.00
2018-08-03T15:24:18.616Z,100409.00
2018-08-03T15:26:46.494Z,100410.00
2018-08-03T15:29:14.335Z,100409.00
2018-08-03T15:31:42.143Z,100410.00
2018-08-03T15:34:09.954Z,100411.00
2018-08-03T15:36:37.756Z,100405.00
2018-08-03T15:39:08.623Z,100400.00
2018-08-03T15:41:36.443Z,100410.00
2018-08-03T15:44:04.232Z,100411.00
2018-08-03T15:46:32.045Z,100409.00
2018-08-03T15:48:59.883Z,100414.00
2018-08-03T15:51:27.695Z,100410.00
2018-08-03T15:53:55.587Z,100405.00
2018-08-03T15:56:23.447Z,100406.00
2018-08-03T15:58:51.271Z,100403.00
2018-08-03T16:01:19.193Z,100401.00
2018-08-03T16:03:47.065Z,100405.00
2018-08-03T16:06:14.902Z,100399.00
2018-08-03T16:08:42.734Z,100395.00
2018-08-03T16:11:10.606Z,100397.00
2018-08-03T16:13:38.557Z,100392.00
2018-08-03T16:16:06.415Z,100394.00
2018-08-03T16:18:34.299Z,100389.00
2018-08-03T16:21:02.102Z,100390.00
2018-08-03T16:23:29.987Z,100389.00
2018-08-03T16:25:57.907Z,100387.00
2018-08-03T16:28:25.798Z,100390.00
2018-08-03T16:30:53.677Z,100385.00
2018-08-03T16:33:21.545Z,100385.00
2018-08-03T16:35:49.446Z,100387.00
2018-08-03T16:38:17.315Z,100382.00
2018-08-03T16:40:45.161Z,100386.00
2018-08-03T16:43:13.018Z,100389.00
2018-08-03T16:45:40.798Z,100387.00
2018-08-03T16:48:08.551Z,100388.00
2018-08-03T16:50:40.620Z,100393.00
2018-08-03T16:53:08.556Z,100384.00
2018-08-03T16:55:36.428Z,100385.00
2018-08-03T16:58:04.323Z,100381.00
2018-08-03T17:00:32.161Z,100387.00
2018-08-03T17:03:00.083Z,100382.00
2018-08-03T17:05:27.953Z,100385.00
2018-08-03T17:07:55.834Z,100378.00
2018-08-03T17:10:23.768Z,100377.00
2018-08-03T17:12:51.633Z,100387.00
2018-08-03T17:15:19.491Z,100387.00
2018-08-03T17:17:47.406Z,100386.00
2018-08-03T17:20:15.290Z,100375.00
2018-08-03T17:22:43.169Z,100381.00
2018-08-03T17:25:11.037Z,100379.00
2018-08-03T17:27:38.962Z,100374.00
2018-08-03T17:30:06.832Z,100376.00
2018-08-03T17:32:34.744Z,100374.00
2018-08-03T17:35:02.631Z,100371.00
2018-08-03T17:37:30.495Z,100365.00
2018-08-03T17:39:58.387Z,100369.00
2018-08-03T17:42:26.289Z,100373.00
2018-08-03T17:44:54.206Z,100362.00
2018-08-03T17:47:22.099Z,100368.00
2018-08-03T17:49:50.027Z,100362.00
2018-08-03T17:52:17.894Z,100367.00
2018-08-03T17:54:45.721Z,100369.00
2018-08-03T17:57:13.554Z,100372.00
2018-08-03T17:59:41.383Z,100371.00
2018-08-03T18:02:09.232Z,100365.00
2018-08-03T18:04:37.021Z,100380.00
2018-08-03T18:07:04.822Z,100379.00
2018-08-03T18:09:32.582Z,100382.00
2018-08-03T18:12:00.440Z,100382.00
2018-08-03T18:14:28.259Z,100380.00
2018-08-03T18:16:56.120Z,100384.00
2018-08-03T18:19:23.970Z,100376.00
2018-08-03T18:21:51.859Z,100381.00
2018-08-03T18:24:19.637Z,100374.00
2018-08-03T18:26:47.559Z,100382.00
2018-08-03T18:29:15.480Z,100386.00
2018-08-03T18:31:43.211Z,100383.00
2018-08-03T18:34:11.057Z,100385.00
2018-08-03T18:36:38.863Z,100391.00
2018-08-03T18:39:08.418Z,100384.00
2018-08-03T18:41:36.479Z,100389.00
2018-08-03T18:44:04.247Z,100383.00
2018-08-03T18:46:32.070Z,100385.00
2018-08-03T18:48:59.847Z,100393.00
2018-08-03T18:51:27.709Z,100395.00
2018-08-03T18:53:55.480Z,100390.00
2018-08-03T18:56:23.319Z,100398.00
2018-08-03T18:58:51.153Z,100395.00
2018-08-03T19:01:18.944Z,100394.00
2018-08-03T19:03:46.753Z,100410.00
2018-08-03T19:06:14.523Z,100407.00
2018-08-03T19:08:42.374Z,100409.00
2018-08-03T19:11:10.195Z,100409.00
2018-08-03T19:13:38.052Z,100413.00
2018-08-03T19:16:05.943Z,100418.00
2018-08-03T19:18:34.178Z,100410.00
2018-08-03T19:21:01.973Z,100412.00
2018-08-03T19:23:29.761Z,100409.00
2018-08-03T19:25:57.628Z,100415.00
2018-08-03T19:28:25.471Z,100409.00
2018-08-03T19:30:53.337Z,100414.00
2018-08-03T19:33:21.217Z,100412.00
2018-08-03T19:35:49.066Z,100404.00
2018-08-03T19:38:16.960Z,100414.00
2018-08-03T19:40:44.847Z,100413.00
2018-08-03T19:43:12.680Z,100415.00
2018-08-03T19:45:40.580Z,100411.00
2018-08-03T19:48:08.434Z,100413.00
2018-08-03T19:50:36.192Z,100411.00
2018-08-03T19:53:04.129Z,100411.00
2018-08-03T19:55:32.022Z,100416.00
2018-08-03T19:58:03.804Z,100408.00
2018-08-03T20:00:31.652Z,100419.00
2018-08-03T20:02:59.535Z,100420.00
2018-08-03T20:05:27.465Z,100421.00
2018-08-03T20:07:55.263Z,100422.00
2018-08-03T20:10:34.990Z,100414.00
2018-08-03T20:13:02.835Z,100411.00
2018-08-03T20:15:30.728Z,100417.00
2018-08-03T20:18:01.327Z,100412.00
2018-08-03T20:20:29.272Z,100412.00
2018-08-03T20:22:57.083Z,100414.00
2018-08-03T20:25:24.946Z,100409.00
2018-08-03T20:27:52.773Z,100412.00
2018-08-03T20:30:20.621Z,100416.00
2018-08-03T20:32:50.671Z,100416.00
2018-08-03T20:35:18.853Z,100412.00
2018-08-03T20:37:46.783Z,100417.00
2018-08-03T20:40:14.601Z,100418.00
2018-08-03T20:42:42.427Z,100420.00
2018-08-03T20:45:10.347Z,100419.00
2018-08-03T20:47:38.348Z,100414.00
2018-08-03T20:50:06.193Z,100411.00
2018-08-03T20:52:34.125Z,100413.00
2018-08-03T20:55:02.085Z,100410.00
2018-08-03T20:57:29.936Z,100409.00
2018-08-03T20:59:57.783Z,100414.00
2018-08-03T21:02:25.615Z,100417.00
2018-08-03T21:04:53.482Z,100415.00
2018-08-03T21:07:21.356Z,100420.00
2018-08-03T21:09:49.310Z,100417.00
2018-08-03T21:12:17.198Z,100427.00
2018-08-03T21:14:45.083Z,100425.00
2018-08-03T21:17:12.968Z,100428.00
2018-08-03T21:19:40.873Z,100429.00
2018-08-03T21:22:08.825Z,100425.00
2018-08-03T21:24:36.657Z,100433.00
2018-08-03T21:27:04.875Z,100427.00
2018-08-03T21:29:39.257Z,100434.00
2018-08-03T21:32:07.216Z,100429.00
2018-08-03T21:41:00.359Z,100436.00
2018-08-03T21:43:28.201Z,100439.00
2018-08-03T21:46:08.762Z,100437.00
2018-08-03T21:48:36.666Z,100432.00
2018-08-03T21:51:04.671Z,100426.00
2018-08-03T21:53:35.849Z,100429.00
2018-08-03T21:56:03.695Z,100429.00
2018-08-03T21:58:31.568Z,100418.00
2018-08-03T22:00:59.388Z,100420.00
2018-08-03T22:03:27.291Z,100417.00
2018-08-03T22:05:55.166Z,100423.00
2018-08-03T22:17:27.805Z,100418.00
2018-08-03T22:19:55.921Z,100418.00
2018-08-03T22:22:23.825Z,100430.00
2018-08-03T22:24:52.410Z,100421.00
2018-08-03T22:27:20.313Z,100415.00
2018-08-03T22:29:48.219Z,100412.00
2018-08-03T22:32:16.047Z,100420.00
2018-08-03T22:34:43.777Z,100410.00
2018-08-03T22:37:11.610Z,100407.00
2018-08-03T22:39:39.490Z,100405.00
2018-08-03T22:42:07.370Z,100403.00
2018-08-03T22:44:35.212Z,100413.00
2018-08-03T22:47:03.107Z,100410.00
2018-08-03T22:49:30.990Z,100414.00
2018-08-03T22:51:58.890Z,100419.00
2018-08-03T22:54:26.706Z,100421.00
2018-08-03T22:56:54.610Z,100416.00
2018-08-03T22:59:22.519Z,100417.00
2018-08-03T23:01:50.335Z,100411.00
2018-08-03T23:04:18.104Z,100418.00
2018-08-03T23:06:45.918Z,100413.00
2018-08-03T23:09:13.844Z,100413.00
2018-08-03T23:11:41.825Z,100418.00
2018-08-03T23:14:09.725Z,100416.00
2018-08-03T23:16:37.622Z,100405.00
2018-08-03T23:19:05.514Z,100400.00
2018-08-03T23:21:33.325Z,100400.00
2018-08-03T23:24:01.156Z,100408.00
2018-08-03T23:26:29.086Z,100401.00
2018-08-03T23:28:56.952Z,100401.00
2018-08-03T23:31:24.961Z,100397.00
2018-08-03T23:33:52.826Z,100399.00
2018-08-03T23:36:20.730Z,100404.00
2018-08-03T23:38:48.599Z,100410.00
2018-08-03T23:41:16.502Z,100408.00
2018-08-03T23:43:44.359Z,100407.00
2018-08-03T23:46:13.040Z,100402.00
2018-08-03T23:48:40.907Z,100397.00
2018-08-03T23:51:08.751Z,100398.00
2018-08-03T23:53:36.704Z,100400.00
2018-08-03T23:56:04.535Z,100397.00
2018-08-03T23:58:32.495Z,100387.00
